Time;durP1;ratioP1;P1;durP2;ratioP2;P2;SDS_P1;SDS_P2;PMS_P1;PMS_P2;Temp;Humidity;BMP_temperature;BMP_pressure;BME280_temperature;BME280_humidity;BME280_pressure;Samples;Min_cycle;Max_cycle;Signal;HPM_P1;HPM_P2
2021/06/11 00:01:27;;;;;;;5.30;4.85;;;;;;;16.75;92.90;99189.23;1629251;87;21037;-74
2021/06/11 00:03:53;;;;;;;5.58;5.05;;;;;;;16.75;92.94;99190.59;1632549;87;21061;-72
2021/06/11 00:06:19;;;;;;;5.08;4.72;;;;;;;16.77;92.89;99191.66;1632872;85;21050;-75
2021/06/11 00:08:47;;;;;;;5.12;4.72;;;;;;;16.76;92.75;99194.92;1632870;85;21095;-71
2021/06/11 00:11:14;;;;;;;6.47;5.45;;;;;;;16.74;92.79;99199.83;1632931;85;21059;-72
2021/06/11 00:13:40;;;;;;;5.75;5.25;;;;;;;16.73;92.87;99206.39;1666310;85;21163;-74
2021/06/11 00:16:08;;;;;;;5.33;4.83;;;;;;;16.73;92.90;99198.25;1632748;87;21585;-73
2021/06/11 00:18:35;;;;;;;6.25;5.65;;;;;;;16.73;92.91;99203.69;1632319;86;20976;-69
2021/06/11 00:21:01;;;;;;;4.90;4.50;;;;;;;16.72;92.89;99204.78;1632668;87;21096;-71
2021/06/11 00:23:27;;;;;;;5.35;4.75;;;;;;;16.72;92.89;99204.78;1611813;87;21066;-74
2021/06/11 00:25:55;;;;;;;4.78;4.37;;;;;;;16.67;93.07;99209.50;1631442;87;21068;-73
2021/06/11 00:28:21;;;;;;;5.60;5.03;;;;;;;16.66;93.12;99206.53;1626413;85;23399;-73
2021/06/11 00:30:47;;;;;;;6.00;5.10;;;;;;;16.68;93.31;99209.77;1620920;88;20964;-75
2021/06/11 00:33:14;;;;;;;8.25;5.15;;;;;;;16.68;93.17;99205.14;1638529;87;21536;-76
2021/06/11 00:35:41;;;;;;;4.87;4.50;;;;;;;16.67;93.17;99204.88;1573705;89;21075;-74
2021/06/11 00:38:08;;;;;;;7.80;5.53;;;;;;;16.63;93.24;99208.50;1588454;88;21094;-72
2021/06/11 00:40:36;;;;;;;5.90;5.25;;;;;;;16.60;93.25;99207.17;1608351;88;21082;-69
2021/06/11 00:43:02;;;;;;;4.95;4.45;;;;;;;16.62;93.37;99212.31;1608678;89;21007;-70
2021/06/11 00:45:30;;;;;;;5.90;5.40;;;;;;;16.60;93.45;99202.30;1608479;89;21100;-74
2021/06/11 00:47:57;;;;;;;5.53;5.03;;;;;;;16.60;93.46;99207.17;1634570;87;21016;-73
2021/06/11 00:50:25;;;;;;;5.20;4.62;;;;;;;16.59;93.43;99203.42;1639453;87;21062;-71
2021/06/11 00:52:53;;;;;;;7.33;5.83;;;;;;;16.56;93.51;99206.95;1622062;87;22118;-70
2021/06/11 00:55:20;;;;;;;5.92;4.53;;;;;;;16.49;93.94;99209.27;1621186;87;21072;-70
2021/06/11 00:57:48;;;;;;;5.30;4.80;;;;;;;16.48;94.16;99212.28;1617920;87;21131;-70
2021/06/11 01:00:16;;;;;;;5.50;5.00;;;;;;;16.50;94.22;99214.13;1613736;87;21016;-72
2021/06/11 01:02:42;;;;;;;6.25;4.90;;;;;;;16.51;94.18;99213.02;1639277;87;21587;-72
2021/06/11 01:05:10;;;;;;;5.87;5.37;;;;;;;16.48;94.23;99211.73;1633480;87;21142;-72
2021/06/11 01:07:38;;;;;;;6.40;5.67;;;;;;;16.49;94.24;99211.98;1613098;87;21067;-71
2021/06/11 01:10:07;;;;;;;5.53;4.78;;;;;;;16.48;94.24;99211.73;1608072;89;21127;-71
2021/06/11 01:12:33;;;;;;;5.33;4.92;;;;;;;16.47;94.33;99212.83;1592889;89;21138;-73
2021/06/11 01:15:03;;;;;;;6.72;5.17;;;;;;;16.51;94.38;99217.09;1611710;88;21052;-74
2021/06/11 01:17:34;;;;;;;5.25;4.85;;;;;;;16.51;94.30;99212.47;1622348;87;21270;-73
2021/06/11 01:19:57;;;;;;;5.50;4.95;;;;;;;16.50;94.26;99205.98;1621989;87;21053;-74
2021/06/11 01:22:55;;;;;;;5.05;4.65;;;;;;;16.45;94.43;99208.23;1608903;88;21019;-71
2021/06/11 01:25:47;;;;;;;5.05;4.28;;;;;;;16.46;94.54;99204.97;1621026;88;21172;-70
2021/06/11 01:28:13;;;;;;;6.10;4.85;;;;;;;16.45;94.72;99219.09;1611604;87;21086;-73
2021/06/11 01:30:40;;;;;;;11.18;5.58;;;;;;;16.46;94.76;99217.19;1620882;88;21031;-72
2021/06/11 01:33:07;;;;;;;6.33;5.20;;;;;;;16.38;94.94;99210.55;1618412;87;21585;-71
2021/06/11 01:35:52;;;;;;;6.00;5.50;;;;;;;16.36;95.00;99216.02;1616185;87;21041;-69
2021/06/11 01:38:22;;;;;;;5.30;4.80;;;;;;;16.39;95.16;99219.50;1622235;87;21055;-70
2021/06/11 01:40:49;;;;;;;5.00;4.42;;;;;;;16.43;95.07;99214.53;1609361;88;20953;-69
2021/06/11 01:43:20;;;;;;;5.45;4.95;;;;;;;16.47;95.05;99219.61;1608923;88;21075;-72
2021/06/11 01:45:46;;;;;;;5.97;5.40;;;;;;;16.50;94.84;99221.72;1638624;87;21018;-72
2021/06/11 01:48:15;;;;;;;5.78;5.05;;;;;;;16.52;94.76;99220.88;1611755;89;21049;-71
2021/06/11 01:50:41;;;;;;;5.70;5.20;;;;;;;16.51;94.50;99221.97;1622572;88;21535;-73
2021/06/11 01:53:08;;;;;;;4.83;4.42;;;;;;;16.51;94.48;99220.62;1633795;87;21083;-69
2021/06/11 01:55:36;;;;;;;5.17;4.78;;;;;;;16.52;94.51;99221.42;1639244;87;21202;-72
2021/06/11 01:58:02;;;;;;;5.78;5.30;;;;;;;16.54;94.51;99223.30;1610212;87;21585;-68
2021/06/11 02:00:29;;;;;;;5.97;5.33;;;;;;;16.54;94.48;99224.66;1608221;89;21051;-68
2021/06/11 02:02:55;;;;;;;6.00;5.00;;;;;;;16.52;94.49;99229.02;1608425;88;21082;-68
2021/06/11 02:05:21;;;;;;;5.17;4.78;;;;;;;16.51;94.48;99219.81;1608319;88;21019;-71
2021/06/11 02:07:49;;;;;;;6.25;5.25;;;;;;;16.54;94.50;99224.66;1588757;89;22355;-71
2021/06/11 02:10:18;;;;;;;5.33;4.87;;;;;;;16.56;94.45;99230.58;1638990;87;20983;-70
2021/06/11 02:12:45;;;;;;;4.25;3.95;;;;;;;16.59;94.41;99231.93;1620309;88;21045;-71
2021/06/11 02:15:13;;;;;;;6.10;5.62;;;;;;;16.58;94.25;99227.05;1627003;87;20981;-71
2021/06/11 02:17:44;;;;;;;5.55;5.05;;;;;;;16.57;94.25;99234.36;1638136;87;21119;-69
2021/06/11 02:20:16;;;;;;;8.40;6.20;;;;;;;16.59;94.31;99234.65;1621177;88;21016;-71
2021/06/11 02:22:44;;;;;;;6.15;5.65;;;;;;;16.57;94.32;99238.98;1638804;87;21725;-69
2021/06/11 02:25:13;;;;;;;6.55;5.80;;;;;;;16.56;94.37;99231.38;1615118;87;21055;-71
2021/06/11 02:27:40;;;;;;;7.37;5.58;;;;;;;16.59;94.56;99237.36;1638747;87;21066;-71
2021/06/11 02:30:09;;;;;;;5.28;4.83;;;;;;;16.60;94.65;99235.69;1641605;86;21028;-72
2021/06/11 02:32:37;;;;;;;4.60;4.20;;;;;;;16.61;94.61;99236.48;1622048;87;21052;-73
2021/06/11 02:35:07;;;;;;;5.90;5.30;;;;;;;16.61;94.58;99229.70;1621067;87;20964;-71
2021/06/11 02:37:34;;;;;;;5.65;5.15;;;;;;;16.62;94.68;99238.11;1661014;86;21058;-71
2021/06/11 02:40:04;;;;;;;6.20;5.60;;;;;;;16.65;94.74;99236.95;1633101;86;21048;-70
2021/06/11 02:42:30;;;;;;;6.10;5.58;;;;;;;16.69;94.80;99244.73;1643545;87;21040;-71
2021/06/11 02:45:01;;;;;;;5.72;5.25;;;;;;;16.71;94.61;99245.25;1621567;87;21904;-72
2021/06/11 02:47:44;;;;;;;6.28;5.78;;;;;;;16.69;94.53;99237.95;1643544;87;21066;-72
2021/06/11 02:50:16;;;;;;;5.55;4.00;;;;;;;16.67;94.63;99244.80;1643761;86;21052;-70
2021/06/11 02:52:50;;;;;;;9.43;6.20;;;;;;;16.63;95.07;99248.67;1631170;87;21587;-70
2021/06/11 02:55:17;;;;;;;;;;;;;;;16.60;95.22;99243.83;1646465;87;22204;-71
2021/06/11 02:57:49;;;;;;;7.22;6.28;;;;;;;16.60;95.45;99245.19;1643635;85;21029;-70
2021/06/11 03:00:16;;;;;;;7.37;5.83;;;;;;;16.61;95.55;99253.59;1643734;86;21044;-71
2021/06/11 03:03:15;;;;;;;5.87;5.37;;;;;;;16.63;95.66;99244.61;1621853;87;20988;-71
2021/06/11 03:05:42;;;;;;;7.15;5.80;;;;;;;16.67;95.61;99252.40;1630015;87;21585;-72
2021/06/11 03:08:11;;;;;;;6.67;5.95;;;;;;;16.69;95.53;99250.17;1645150;87;21041;-71
2021/06/11 03:10:37;;;;;;;7.33;5.92;;;;;;;16.71;95.54;99247.97;1644810;87;21164;-70
2021/06/11 03:13:04;;;;;;;6.45;5.85;;;;;;;16.75;95.43;99253.59;1621968;87;21019;-71
2021/06/11 03:15:33;;;;;;;10.10;6.55;;;;;;;16.79;95.28;99258.12;1644055;87;21085;-76
2021/06/11 03:18:03;;;;;;;6.92;6.33;;;;;;;16.76;95.07;99255.22;1643029;87;21131;-72
2021/06/11 03:20:37;;;;;;;7.78;6.55;;;;;;;16.74;95.13;99253.37;1644888;87;21055;-71
2021/06/11 03:23:10;;;;;;;5.67;5.28;;;;;;;16.75;95.21;99254.41;1667253;85;21070;-72
2021/06/11 03:25:53;;;;;;;7.62;6.92;;;;;;;16.75;95.21;99259.03;1644720;85;21063;-73
2021/06/11 03:28:24;;;;;;;7.60;6.87;;;;;;;16.73;95.26;99255.83;1618247;88;21564;-72
2021/06/11 03:30:58;;;;;;;5.97;5.37;;;;;;;16.72;95.42;99263.17;1629744;86;21020;-74
2021/06/11 03:33:31;;;;;;;6.70;6.00;;;;;;;16.72;95.50;99262.36;1644635;87;21052;-72
2021/06/11 03:36:09;;;;;;;6.58;5.70;;;;;;;16.68;95.53;99263.52;1644836;87;22062;-72
2021/06/11 03:38:37;;;;;;;7.67;6.58;;;;;;;16.68;95.86;99266.78;1633920;87;21053;-73
2021/06/11 03:41:04;;;;;;;7.67;6.85;;;;;;;16.65;95.99;99260.58;1644106;87;20973;-72
2021/06/11 03:43:31;;;;;;;7.28;6.60;;;;;;;16.66;96.17;99266.27;1643528;87;21532;-71
2021/06/11 03:45:58;;;;;;;6.10;5.62;;;;;;;16.69;96.16;99274.61;1622335;87;21088;-73
2021/06/11 03:48:27;;;;;;;6.28;5.65;;;;;;;16.71;96.03;99271.05;1644939;85;22298;-73
2021/06/11 03:50:55;;;;;;;11.33;5.58;;;;;;;16.75;96.09;99272.06;1644461;87;20984;-74
2021/06/11 03:53:23;;;;;;;8.18;7.12;;;;;;;16.78;95.92;99269.31;1644691;87;20984;-72
2021/06/11 03:55:55;;;;;;;7.00;6.40;;;;;;;16.74;95.99;99275.88;1644879;87;21099;-73
2021/06/11 03:58:35;;;;;;;6.40;5.80;;;;;;;16.71;95.97;99271.61;1644604;87;21490;-72
2021/06/11 04:01:03;;;;;;;7.22;6.62;;;;;;;16.71;96.19;99268.34;1644262;87;21131;-71
2021/06/11 04:03:29;;;;;;;6.67;6.15;;;;;;;16.75;96.20;99267.98;1644558;87;21009;-72
2021/06/11 04:06:01;;;;;;;7.42;6.72;;;;;;;16.80;96.23;99269.25;1621957;87;21095;-72
2021/06/11 04:08:31;;;;;;;6.97;6.37;;;;;;;16.87;96.06;99278.37;1621706;87;21037;-70
2021/06/11 04:10:57;;;;;;;6.92;6.33;;;;;;;16.86;95.62;99278.11;1643678;87;21110;-70
2021/06/11 04:13:49;;;;;;;9.30;6.72;;;;;;;16.86;95.61;99276.75;1644740;85;21101;-70
2021/06/11 04:16:33;;;;;;;6.05;5.55;;;;;;;16.86;95.64;99278.92;1644520;85;21524;-71
2021/06/11 04:19:01;;;;;;;6.40;5.80;;;;;;;16.87;95.74;99272.94;1643879;85;21047;-71
2021/06/11 04:21:33;;;;;;;12.90;7.17;;;;;;;16.88;95.80;99286.20;1644674;87;21084;-70
2021/06/11 04:24:08;;;;;;;7.62;6.92;;;;;;;16.89;95.66;99283.73;1622483;87;21640;-70
2021/06/11 04:26:37;;;;;;;7.42;6.72;;;;;;;16.87;95.81;99275.66;1642932;87;21225;-73
2021/06/11 04:29:11;;;;;;;8.25;7.55;;;;;;;16.88;95.74;99282.13;1643436;87;21036;-71
2021/06/11 04:31:39;;;;;;;10.10;8.73;;;;;;;16.88;95.80;99286.20;1604608;88;21040;-72
2021/06/11 04:34:05;;;;;;;6.78;6.17;;;;;;;16.88;96.07;99280.77;1618560;87;21006;-73
2021/06/11 04:36:34;;;;;;;7.70;7.00;;;;;;;16.89;96.18;99282.93;1598940;87;21082;-73
2021/06/11 04:39:04;;;;;;;6.45;5.90;;;;;;;16.92;96.34;99285.06;1612828;88;21346;-74
2021/06/11 04:41:31;;;;;;;9.00;7.60;;;;;;;16.99;96.31;99280.83;1627880;87;21028;-72
2021/06/11 04:43:58;;;;;;;6.62;6.10;;;;;;;17.07;95.75;99285.32;1638015;87;21081;-74
2021/06/11 04:46:25;;;;;;;7.03;6.42;;;;;;;17.07;95.42;99288.03;1634874;87;21054;-73
2021/06/11 04:48:52;;;;;;;6.97;6.37;;;;;;;17.10;95.56;99282.80;1635670;87;21546;-72
2021/06/11 04:51:18;;;;;;;8.70;6.05;;;;;;;17.18;95.38;99290.23;1632001;86;21012;-80
2021/06/11 04:53:45;;;;;;;7.03;6.33;;;;;;;17.27;95.21;99286.24;1624767;87;20996;-74
2021/06/11 04:56:12;;;;;;;8.08;7.28;;;;;;;17.38;94.75;99289.81;1613769;87;21113;-73
2021/06/11 04:58:40;;;;;;;8.05;7.30;;;;;;;17.42;94.07;99277.77;1615566;87;21029;-73
2021/06/11 05:01:08;;;;;;;10.50;6.92;;;;;;;17.50;93.72;99284.42;1634027;87;21099;-73
2021/06/11 05:03:35;;;;;;;7.03;6.42;;;;;;;17.55;93.29;99282.95;1624805;88;21856;-70
2021/06/11 05:06:02;;;;;;;6.45;5.85;;;;;;;17.60;92.88;99282.30;1624622;88;21015;-71
2021/06/11 05:08:29;;;;;;;6.75;5.87;;;;;;;17.66;92.34;99288.42;1624838;88;21034;-71
2021/06/11 05:10:55;;;;;;;7.40;6.65;;;;;;;17.72;92.07;99288.58;1602934;87;21062;-72
2021/06/11 05:13:22;;;;;;;7.78;6.78;;;;;;;17.77;91.60;99290.63;1634781;87;21113;-71
2021/06/11 05:15:49;;;;;;;6.10;5.47;;;;;;;17.78;91.73;99280.55;1634695;87;21136;-72
2021/06/11 05:18:16;;;;;;;7.05;5.92;;;;;;;17.85;91.74;99285.00;1646330;87;21041;-71
2021/06/11 05:20:42;;;;;;;5.53;4.97;;;;;;;17.91;91.06;99283.77;1661159;83;21040;-72
2021/06/11 05:23:09;;;;;;;6.65;5.25;;;;;;;17.97;90.80;99278.47;1634530;87;21111;-71
2021/06/11 05:25:36;;;;;;;5.97;5.37;;;;;;;18.05;90.54;99286.44;1634960;87;21081;-72
2021/06/11 05:28:03;;;;;;;5.08;4.50;;;;;;;18.15;89.93;99284.28;1636104;87;21292;-72
2021/06/11 05:30:31;;;;;;;7.12;6.42;;;;;;;18.16;88.77;99295.42;1636152;85;21017;-71
2021/06/11 05:32:58;;;;;;;6.45;5.65;;;;;;;18.12;88.82;99290.36;1636712;87;20973;-72
2021/06/11 05:35:25;;;;;;;9.03;5.35;;;;;;;18.17;89.18;99293.52;1637627;87;21075;-71
2021/06/11 05:37:52;;;;;;;5.80;5.30;;;;;;;18.20;88.70;99288.80;1637416;87;21020;-71
2021/06/11 05:40:20;;;;;;;5.30;4.80;;;;;;;18.21;88.62;99284.42;1636779;85;21065;-71
2021/06/11 05:42:49;;;;;;;5.87;5.35;;;;;;;18.20;88.33;99295.05;1655840;86;20938;-72
2021/06/11 05:45:16;;;;;;;7.10;5.97;;;;;;;18.20;88.11;99290.16;1628978;87;21570;-70
2021/06/11 05:47:42;;;;;;;6.45;5.92;;;;;;;18.21;87.89;99299.39;1640562;87;21076;-72
2021/06/11 05:50:10;;;;;;;4.53;4.12;;;;;;;18.24;87.82;99297.40;1639823;87;21009;-71
2021/06/11 05:52:36;;;;;;;5.10;4.60;;;;;;;18.26;87.53;99282.94;1639201;87;21185;-72
2021/06/11 05:55:05;;;;;;;5.95;5.35;;;;;;;18.32;87.47;99289.61;1639367;87;21042;-72
2021/06/11 05:57:31;;;;;;;5.28;4.78;;;;;;;18.33;87.14;99292.56;1623718;86;21101;-71
2021/06/11 05:59:58;;;;;;;4.72;4.35;;;;;;;18.39;86.95;99298.94;1639490;87;21543;-72
2021/06/11 06:02:25;;;;;;;5.87;5.30;;;;;;;18.49;86.69;99300.60;1640514;86;21164;-72
2021/06/11 06:04:51;;;;;;;5.20;4.78;;;;;;;18.53;86.34;99302.42;1640730;86;21063;-71
2021/06/11 06:07:19;;;;;;;6.10;4.72;;;;;;;18.62;86.50;99301.10;1657413;86;20950;-71
2021/06/11 06:09:47;;;;;;;10.43;5.62;;;;;;;18.75;86.18;99307.05;1614370;88;21088;-72
2021/06/11 06:12:13;;;;;;;5.55;5.03;;;;;;;18.89;85.82;99302.30;1636638;86;21120;-72
2021/06/11 06:14:40;;;;;;;5.15;4.55;;;;;;;18.99;84.18;99311.53;1657178;86;21842;-72
2021/06/11 06:17:06;;;;;;;5.87;4.78;;;;;;;19.03;83.03;99307.09;1625142;87;21216;-73
2021/06/11 06:19:34;;;;;;;4.78;4.28;;;;;;;19.04;81.62;99314.13;1636053;87;20972;-73
2021/06/11 06:22:00;;;;;;;4.35;3.95;;;;;;;19.07;81.09;99307.26;1612837;88;21580;-71
2021/06/11 06:24:27;;;;;;;8.88;4.87;;;;;;;19.11;80.86;99310.40;1612960;89;20964;-71
2021/06/11 06:26:53;;;;;;;5.20;4.70;;;;;;;19.17;80.87;99306.98;1612948;89;21075;-71
2021/06/11 06:29:19;;;;;;;4.42;3.98;;;;;;;19.21;81.32;99312.59;1613523;87;21112;-73
2021/06/11 06:31:47;;;;;;;6.70;5.50;;;;;;;19.19;80.48;99308.81;1630096;87;21593;-71
2021/06/11 06:34:14;;;;;;;7.40;4.37;;;;;;;19.24;80.41;99309.23;1651115;86;21533;-71
2021/06/11 06:36:41;;;;;;;5.30;4.62;;;;;;;19.29;79.88;99307.72;1628121;86;21549;-72
2021/06/11 06:39:08;;;;;;;5.67;4.55;;;;;;;19.36;79.34;99321.16;1645930;85;21103;-70
2021/06/11 06:41:35;;;;;;;5.55;5.05;;;;;;;19.38;79.02;99316.72;1644802;87;21262;-71
2021/06/11 06:44:04;;;;;;;5.05;3.83;;;;;;;19.37;78.66;99312.41;1644932;87;21529;-72
2021/06/11 06:46:33;;;;;;;4.87;3.47;;;;;;;19.39;77.17;99300.61;1644718;85;21024;-72
2021/06/11 06:49:01;;;;;;;5.97;3.87;;;;;;;19.42;76.88;99310.91;1621402;87;21041;-72
2021/06/11 06:51:28;;;;;;;5.78;3.80;;;;;;;19.44;76.77;99314.13;1630037;87;21081;-70
2021/06/11 06:53:55;;;;;;;6.15;4.00;;;;;;;19.45;77.19;99317.92;1630188;87;21329;-71
2021/06/11 06:56:24;;;;;;;4.42;3.87;;;;;;;19.53;77.00;99324.50;1661268;85;21582;-74
2021/06/11 06:58:52;;;;;;;4.08;3.72;;;;;;;19.59;76.64;99321.88;1625987;87;21525;-73
2021/06/11 07:01:19;;;;;;;4.40;4.00;;;;;;;19.65;76.25;99319.80;1672370;85;21084;-71
2021/06/11 07:03:45;;;;;;;3.45;3.15;;;;;;;19.67;76.41;99322.44;1622363;87;21060;-71
2021/06/11 07:06:13;;;;;;;8.33;4.60;;;;;;;19.74;75.86;99331.53;1622024;87;21049;-73
2021/06/11 07:08:40;;;;;;;9.23;4.00;;;;;;;19.78;75.54;99332.50;1622006;87;21056;-71
2021/06/11 07:11:07;;;;;;;4.85;4.22;;;;;;;19.93;75.01;99325.21;1662495;86;21081;-72
2021/06/11 07:13:34;;;;;;;4.03;3.72;;;;;;;19.93;75.01;99325.21;1641288;86;21076;-73
2021/06/11 07:16:00;;;;;;;5.67;3.35;;;;;;;19.99;73.58;99321.20;1641214;86;21048;-72
2021/06/11 07:18:26;;;;;;;4.58;3.25;;;;;;;19.96;73.13;99334.11;1641014;85;21589;-73
2021/06/11 07:20:53;;;;;;;6.08;3.90;;;;;;;19.84;73.98;99338.86;1634095;86;21052;-73
2021/06/11 07:23:20;;;;;;;4.70;3.33;;;;;;;19.84;73.98;99338.86;1645039;86;21050;-71
2021/06/11 07:25:46;;;;;;;5.55;3.42;;;;;;;19.86;73.37;99330.33;1644823;85;21046;-72
2021/06/11 07:28:13;;;;;;;3.47;3.12;;;;;;;19.92;73.10;99327.13;1644292;85;21611;-73
2021/06/11 07:30:40;;;;;;;4.42;3.60;;;;;;;19.99;72.59;99330.20;1642703;87;21101;-77
2021/06/11 07:33:06;;;;;;;3.15;2.85;;;;;;;20.10;72.25;99327.94;1644765;87;21107;-73
2021/06/11 07:35:33;;;;;;;4.08;3.45;;;;;;;20.10;72.25;99327.94;1641426;86;21552;-75
2021/06/11 07:37:59;;;;;;;3.10;2.80;;;;;;;20.09;71.10;99330.45;1624676;87;21067;-71
2021/06/11 07:40:26;;;;;;;3.83;3.35;;;;;;;20.11;71.34;99335.01;1630910;87;21604;-71
2021/06/11 07:42:53;;;;;;;3.40;3.10;;;;;;;20.17;71.18;99328.27;1616814;88;21171;-71
2021/06/11 07:45:19;;;;;;;3.98;3.58;;;;;;;20.17;69.87;99339.19;1641515;87;21064;-71
2021/06/11 07:47:46;;;;;;;4.25;3.05;;;;;;;20.16;69.73;99332.67;1645039;86;21527;-70
2021/06/11 07:50:13;;;;;;;5.53;4.08;;;;;;;20.15;69.98;99331.06;1642514;87;21001;-71
2021/06/11 07:52:40;;;;;;;3.87;3.55;;;;;;;20.14;69.61;99331.66;1622372;87;21087;-72
2021/06/11 07:55:08;;;;;;;5.00;3.60;;;;;;;20.13;69.62;99320.48;1641841;87;21153;-71
2021/06/11 07:57:35;;;;;;;3.58;3.30;;;;;;;20.19;69.76;99336.92;1646140;87;21081;-71
2021/06/11 08:00:05;;;;;;;5.55;3.83;;;;;;;20.29;69.75;99332.50;1642621;87;20961;-74
2021/06/11 08:02:33;;;;;;;3.90;3.52;;;;;;;20.38;68.62;99344.84;1643871;87;21098;-72
2021/06/11 08:04:59;;;;;;;5.42;3.67;;;;;;;20.31;68.16;99328.94;1643052;85;21084;-73
2021/06/11 08:07:30;;;;;;;3.80;3.50;;;;;;;20.25;68.74;99334.84;1641828;87;21079;-72
2021/06/11 08:09:54;;;;;;;4.45;3.40;;;;;;;20.21;69.12;99336.05;1644625;87;21042;-73
2021/06/11 08:12:20;;;;;;;11.90;3.80;;;;;;;20.26;69.49;99341.35;1643143;85;20933;-72
2021/06/11 08:14:48;;;;;;;9.48;4.08;;;;;;;20.30;68.92;99343.70;1643136;87;21033;-72
2021/06/11 08:17:15;;;;;;;3.70;3.10;;;;;;;20.35;68.68;99342.18;1642977;87;21069;-72
2021/06/11 08:19:41;;;;;;;4.53;4.12;;;;;;;20.37;68.74;99341.86;1623954;87;21484;-70
2021/06/11 08:22:08;;;;;;;3.72;3.42;;;;;;;20.37;68.28;99346.77;1616898;88;21059;-71
2021/06/11 08:24:34;;;;;;;4.12;3.72;;;;;;;20.36;68.32;99338.89;1617118;88;21042;-72
2021/06/11 08:27:01;;;;;;;3.17;2.87;;;;;;;20.41;68.85;99341.45;1616955;88;21039;-72
2021/06/11 08:29:27;;;;;;;4.25;3.42;;;;;;;20.49;68.96;99341.19;1641395;86;21056;-73
2021/06/11 08:31:54;;;;;;;5.05;4.58;;;;;;;20.55;69.22;99344.00;1649050;85;21145;-72
2021/06/11 08:34:20;;;;;;;8.23;5.35;;;;;;;20.54;68.95;99339.09;1656643;86;20969;-72
2021/06/11 08:36:47;;;;;;;5.42;4.85;;;;;;;20.51;69.11;99344.42;1635281;87;21130;-71
2021/06/11 08:39:13;;;;;;;5.15;4.17;;;;;;;20.58;69.18;99339.25;1640761;86;21059;-71
2021/06/11 08:41:40;;;;;;;8.68;4.53;;;;;;;20.62;68.95;99362.90;1634159;87;21574;-72
2021/06/11 08:44:08;;;;;;;8.23;4.90;;;;;;;20.68;68.65;99347.11;1614531;88;21006;-71
2021/06/11 08:46:35;;;;;;;10.13;4.35;;;;;;;20.69;68.37;99347.35;1614423;88;21007;-71
2021/06/11 08:49:02;;;;;;;9.95;4.05;;;;;;;20.67;68.00;99347.67;1599440;88;21010;-72
2021/06/11 08:51:29;;;;;;;6.15;3.95;;;;;;;20.64;68.18;99346.16;1614688;88;21555;-72
2021/06/11 08:53:57;;;;;;;3.92;3.55;;;;;;;20.64;67.05;99352.42;1613939;87;22195;-71
2021/06/11 08:56:24;;;;;;;5.97;4.28;;;;;;;20.58;66.28;99348.25;1600731;88;21571;-77
2021/06/11 08:58:53;;;;;;;6.30;4.30;;;;;;;20.52;66.63;99348.77;1620145;87;20974;-72
2021/06/11 09:01:19;;;;;;;3.77;3.47;;;;;;;20.51;67.12;99357.52;1651577;86;21122;-69
2021/06/11 09:03:46;;;;;;;5.65;3.02;;;;;;;20.55;66.47;99348.91;1624496;86;21011;-68
2021/06/11 09:06:13;;;;;;;4.15;3.75;;;;;;;20.62;66.07;99340.23;1644764;87;21093;-72
2021/06/11 09:08:41;;;;;;;4.70;3.10;;;;;;;20.67;65.79;99337.33;1644828;87;21209;-72
2021/06/11 09:11:14;;;;;;;5.87;3.08;;;;;;;20.76;65.56;99339.47;1647342;86;21004;-69
2021/06/11 09:13:42;;;;;;;6.67;4.42;;;;;;;20.84;64.49;99336.70;1595365;87;21487;-69
2021/06/11 09:16:21;;;;;;;5.60;3.60;;;;;;;20.96;63.34;99337.97;1644694;87;21052;-69
2021/06/11 09:18:59;;;;;;;6.72;3.50;;;;;;;21.04;62.90;99329.73;1644795;87;21536;-67
2021/06/11 09:21:47;;;;;;;3.60;3.37;;;;;;;21.11;62.28;99333.30;1644850;87;21164;-68
2021/06/11 09:24:22;;;;;;;4.50;3.42;;;;;;;21.19;63.07;99324.31;1655733;86;20994;-69
2021/06/11 09:27:07;;;;;;;4.08;3.55;;;;;;;21.32;62.77;99328.75;1627917;86;21081;-68
2021/06/11 09:29:43;;;;;;;4.17;3.22;;;;;;;21.38;62.65;99316.50;1630529;86;21016;-69
2021/06/11 09:32:25;;;;;;;3.85;3.55;;;;;;;21.43;62.49;99316.88;1650193;86;21077;-70
2021/06/11 09:34:58;;;;;;;4.13;3.73;;;;;;;21.43;62.79;99318.24;1655337;86;21182;-68
2021/06/11 09:37:29;;;;;;;4.72;4.08;;;;;;;21.40;63.28;99313.41;1655182;86;21001;-69
2021/06/11 09:40:07;;;;;;;4.00;3.65;;;;;;;21.27;63.88;99317.99;1633816;86;21080;-69
2021/06/11 09:42:35;;;;;;;3.67;3.37;;;;;;;21.20;64.34;99322.59;1655106;86;21552;-69
2021/06/11 09:45:06;;;;;;;4.35;3.95;;;;;;;21.27;64.47;99319.36;1656276;86;21073;-72
2021/06/11 09:47:48;;;;;;;4.53;3.90;;;;;;;21.35;64.55;99310.30;1655136;86;21912;-70
2021/06/11 09:50:28;;;;;;;6.92;3.75;;;;;;;21.47;64.48;99310.41;1654172;85;20995;-72
2021/06/11 09:53:06;;;;;;;4.53;3.65;;;;;;;21.59;63.00;99313.22;1653926;86;21621;-70
2021/06/11 09:55:48;;;;;;;6.83;4.30;;;;;;;21.66;63.11;99312.14;1641587;85;21053;-75
2021/06/11 09:58:30;;;;;;;3.62;3.33;;;;;;;21.83;63.33;99309.02;1633899;87;21005;-72
2021/06/11 10:01:11;;;;;;;5.40;3.50;;;;;;;21.99;62.68;99306.77;1672881;85;21483;-69
2021/06/11 10:03:41;;;;;;;6.90;5.67;;;;;;;22.12;60.87;99316.64;1673310;85;21139;-70
2021/06/11 10:06:09;;;;;;;3.42;3.12;;;;;;;22.20;60.79;99307.33;1673372;85;20994;-70
2021/06/11 10:08:38;;;;;;;3.62;3.22;;;;;;;22.20;57.94;99314.17;1673544;85;20954;-71
2021/06/11 10:11:10;;;;;;;2.62;2.42;;;;;;;22.23;56.96;99306.08;1673389;85;21070;-70
2021/06/11 10:13:37;;;;;;;3.22;2.92;;;;;;;22.26;55.80;99308.13;1689048;84;21148;-69
2021/06/11 10:16:11;;;;;;;3.83;2.47;;;;;;;22.27;55.89;99298.78;1701522;84;20975;-71
2021/06/11 10:18:39;;;;;;;4.55;2.87;;;;;;;22.31;56.20;99304.38;1677315;84;21020;-71
2021/06/11 10:21:07;;;;;;;2.72;2.52;;;;;;;22.31;56.65;99316.71;1668130;85;21146;-73
2021/06/11 10:23:34;;;;;;;3.75;3.33;;;;;;;22.20;56.05;99308.13;1636164;87;21068;-71
2021/06/11 10:26:02;;;;;;;5.55;3.12;;;;;;;22.21;56.44;99301.48;1648211;87;22281;-70
2021/06/11 10:28:49;;;;;;;3.98;3.30;;;;;;;22.25;56.86;99299.70;1644979;86;20970;-72
2021/06/11 10:31:20;;;;;;;2.87;2.40;;;;;;;22.39;56.32;99303.52;1668053;85;21587;-69
2021/06/11 10:33:53;;;;;;;3.20;2.80;;;;;;;22.45;56.14;99303.52;1629862;87;21580;-78
2021/06/11 10:36:33;;;;;;;3.92;3.25;;;;;;;22.42;56.45;99310.49;1618586;87;21126;-70
2021/06/11 10:39:15;;;;;;;2.90;2.70;;;;;;;22.40;56.70;99307.84;1618714;87;21025;-72
2021/06/11 10:42:08;;;;;;;3.87;2.55;;;;;;;22.47;56.10;99302.63;1640861;87;20994;-74
2021/06/11 10:44:46;;;;;;;2.90;2.70;;;;;;;22.61;55.74;99295.70;1598918;87;21631;-71
2021/06/11 10:47:21;;;;;;;3.17;2.87;;;;;;;22.74;55.55;99291.06;1640994;87;21070;-70
2021/06/11 10:50:01;;;;;;;5.08;2.75;;;;;;;22.87;55.32;99303.68;1641252;87;21106;-68
2021/06/11 10:52:44;;;;;;;4.92;3.02;;;;;;;22.91;54.71;99302.42;1642936;86;21815;-69
2021/06/11 10:55:24;;;;;;;3.42;3.12;;;;;;;22.83;54.88;99311.55;1668229;86;21107;-72
2021/06/11 10:57:59;;;;;;;4.08;3.00;;;;;;;22.74;54.36;99294.38;1667527;85;21090;-69
2021/06/11 11:00:33;;;;;;;2.95;2.62;;;;;;;22.78;53.93;99291.98;1640841;86;21128;-68
2021/06/11 11:03:01;;;;;;;2.77;2.52;;;;;;;22.84;54.81;99287.08;1658563;85;21066;-72
2021/06/11 11:05:34;;;;;;;7.37;3.40;;;;;;;22.87;54.35;99285.05;1643217;87;21089;-69
2021/06/11 11:08:05;;;;;;;2.83;2.58;;;;;;;22.86;54.68;99295.21;1622332;87;21564;-72
2021/06/11 11:10:48;;;;;;;3.20;2.17;;;;;;;22.92;55.12;99299.34;1643323;87;20943;-71
2021/06/11 11:13:19;;;;;;;4.42;3.08;;;;;;;22.87;53.60;99296.02;1642880;87;21097;-70
2021/06/11 11:15:51;;;;;;;3.62;3.20;;;;;;;22.75;53.70;99288.56;1624973;87;21024;-70
2021/06/11 11:18:37;;;;;;;3.05;2.37;;;;;;;22.64;54.95;99290.69;1643232;87;21775;-71
2021/06/11 11:21:28;;;;;;;2.83;2.62;;;;;;;22.70;55.86;99288.78;1625363;87;21022;-74
2021/06/11 11:24:01;;;;;;;3.37;3.08;;;;;;;22.79;54.03;99299.64;1643107;87;21563;-68
2021/06/11 11:26:43;;;;;;;4.97;2.80;;;;;;;22.80;54.91;99296.56;1643330;87;21604;-70
2021/06/11 11:29:10;;;;;;;5.90;3.77;;;;;;;22.82;55.41;99289.38;1622548;87;21074;-66
2021/06/11 11:31:39;;;;;;;5.33;2.42;;;;;;;22.78;56.08;99284.35;1663794;86;21801;-73
2021/06/11 11:34:05;;;;;;;2.80;2.00;;;;;;;22.75;55.35;99276.22;1647931;85;21014;-70
2021/06/11 11:36:35;;;;;;;6.70;2.85;;;;;;;22.83;55.78;99269.05;1662385;84;21115;-69
2021/06/11 11:39:05;;;;;;;3.27;2.98;;;;;;;22.91;56.00;99274.42;1687015;85;21862;-68
2021/06/11 11:41:32;;;;;;;3.65;3.35;;;;;;;22.95;54.80;99279.45;1641522;86;21057;-69
2021/06/11 11:43:58;;;;;;;3.92;2.45;;;;;;;22.93;54.58;99272.69;1660834;86;22229;-70
2021/06/11 11:46:24;;;;;;;3.00;2.70;;;;;;;22.85;54.50;99280.46;1660811;86;21085;-70